Time,TemperatureF,DewpointF,PressureIn,WindDirection,WindDirectionDegrees,WindSpeedMPH,WindSpeedGustMPH,Humidity,HourlyPrecipIn,Conditions,Clouds,dailyrainin,SoftwareType,DateUTC
2013-03-22 00:09:00,57.3,53.0,29.79,ESE,115,0.0,1.0,85,0.00,,,0.00,weatherlink.com 1.10,2013-03-22 07:09:00,
2013-03-22 00:24:00,56.9,53.0,29.78,SSW,205,0.0,0.0,86,0.00,,,0.00,weatherlink.com 1.10,2013-03-22 07:24:00,
2013-03-22 00:39:00,56.8,53.0,29.78,SSW,205,0.0,0.0,86,0.00,,,0.00,weatherlink.com 1.10,2013-03-22 07:39:00,
2013-03-22 00:54:00,56.2,52.0,29.78,SSW,202,0.0,1.0,87,0.00,,,0.00,weatherlink.com 1.10,2013-03-22 07:54:00,
2013-03-22 01:09:00,55.7,52.0,29.78,SSW,201,0.0,1.0,87,0.00,,,0.00,weatherlink.com 1.10,2013-03-22 08:09:00,
2013-03-22 01:24:00,55.3,52.0,29.78,SSW,200,0.0,1.0,88,0.00,,,0.00,weatherlink.com 1.10,2013-03-22 08:24:00,
2013-03-22 01:39:00,54.9,51.0,29.79,SSW,201,1.0,2.0,87,0.00,,,0.00,weatherlink.com 1.10,2013-03-22 08:39:00,
2013-03-22 01:54:00,54.8,51.0,29.79,SSW,201,0.0,1.0,88,0.00,,,0.00,weatherlink.com 1.10,2013-03-22 08:54:00,
2013-03-22 02:09:00,55.2,52.0,29.79,SW,226,0.0,2.0,88,0.00,,,0.00,weatherlink.com 1.10,2013-03-22 09:09:00,
2013-03-22 02:24:00,56.5,53.0,29.79,SE,139,3.0,5.0,89,0.00,,,0.00,weatherlink.com 1.10,2013-03-22 09:24:00,
2013-03-22 02:39:00,57.3,54.0,29.78,South,175,2.0,5.0,88,0.00,,,0.00,weatherlink.com 1.10,2013-03-22 09:39:00,
2013-03-22 02:54:00,57.7,54.0,29.78,SE,128,1.0,4.0,88,0.00,,,0.00,weatherlink.com 1.10,2013-03-22 09:54:00,
2013-03-22 03:09:00,57.6,54.0,29.78,SSE,153,3.0,7.0,87,0.00,,,0.00,weatherlink.com 1.10,2013-03-22 10:09:00,
2013-03-22 03:24:00,57.3,53.0,29.78,ESE,120,3.0,5.0,86,0.00,,,0.00,weatherlink.com 1.10,2013-03-22 10:24:00,
2013-03-22 03:39:00,57.1,53.0,29.78,SE,146,2.0,4.0,86,0.00,,,0.00,weatherlink.com 1.10,2013-03-22 10:39:00,
2013-03-22 03:54:00,56.8,53.0,29.78,SE,144,1.0,4.0,86,0.00,,,0.00,weatherlink.com 1.10,2013-03-22 10:54:00,
2013-03-22 04:09:00,56.6,53.0,29.78,South,174,1.0,4.0,86,0.00,,,0.00,weatherlink.com 1.10,2013-03-22 11:09:00,
2013-03-22 04:24:00,56.3,52.0,29.78,SE,139,2.0,3.0,86,0.00,,,0.00,weatherlink.com 1.10,2013-03-22 11:24:00,
2013-03-22 04:39:00,55.9,52.0,29.78,SSE,155,0.0,2.0,86,0.00,,,0.00,weatherlink.com 1.10,2013-03-22 11:39:00,
2013-03-22 04:54:00,55.4,51.0,29.78,SSE,155,0.0,1.0,86,0.00,,,0.00,weatherlink.com 1.10,2013-03-22 11:54:00,
2013-03-22 05:09:00,55.2,51.0,29.78,ESE,107,0.0,2.0,87,0.00,,,0.00,weatherlink.com 1.10,2013-03-22 12:09:00,
2013-03-22 05:24:00,54.7,51.0,29.79,ESE,107,0.0,1.0,87,0.00,,,0.00,weatherlink.com 1.10,2013-03-22 12:24:00,
2013-03-22 05:39:00,54.3,51.0,29.79,ESE,107,0.0,0.0,87,0.00,,,0.00,weatherlink.com 1.10,2013-03-22 12:39:00,
2013-03-22 05:54:00,54.1,51.0,29.79,ESE,107,0.0,1.0,88,0.00,,,0.00,weatherlink.com 1.10,2013-03-22 12:54:00,
2013-03-22 06:09:00,54.3,51.0,29.80,ESE,107,0.0,1.0,88,0.00,,,0.00,weatherlink.com 1.10,2013-03-22 13:09:00,
2013-03-22 06:24:00,54.8,51.0,29.80,East,82,0.0,2.0,88,0.00,,,0.00,weatherlink.com 1.10,2013-03-22 13:24:00,
2013-03-22 06:39:00,55.0,52.0,29.80,East,80,0.0,2.0,88,0.00,,,0.00,weatherlink.com 1.10,2013-03-22 13:39:00,
2013-03-22 06:54:00,55.3,52.0,29.81,ENE,77,0.0,2.0,87,0.00,,,0.00,weatherlink.com 1.10,2013-03-22 13:54:00,
2013-03-22 07:09:00,55.2,51.0,29.81,ENE,77,1.0,2.0,87,0.00,,,0.00,weatherlink.com 1.10,2013-03-22 14:09:00,
2013-03-22 07:24:00,55.6,52.0,29.81,ESE,103,1.0,2.0,87,0.00,,,0.00,weatherlink.com 1.10,2013-03-22 14:24:00,
2013-03-22 07:39:00,56.1,52.0,29.81,East,100,1.0,3.0,86,0.00,,,0.00,weatherlink.com 1.10,2013-03-22 14:39:00,
2013-03-22 07:54:00,57.2,53.0,29.82,East,83,1.0,2.0,85,0.00,,,0.00,weatherlink.com 1.10,2013-03-22 14:54:00,
2013-03-22 08:09:00,57.6,53.0,29.83,East,94,0.0,3.0,84,0.00,,,0.00,weatherlink.com 1.10,2013-03-22 15:09:00,
2013-03-22 08:25:00,58.1,53.0,29.84,ESE,121,2.0,2.0,83,0.00,,,0.00,weatherlink.com 1.10,2013-03-22 15:25:00,
2013-03-22 08:40:00,58.5,53.0,29.85,ESE,111,0.0,2.0,82,0.00,,,0.00,weatherlink.com 1.10,2013-03-22 15:40:00,
2013-03-22 08:55:00,58.9,53.0,29.85,SE,130,0.0,2.0,81,0.00,,,0.00,weatherlink.com 1.10,2013-03-22 15:55:00,
2013-03-22 09:10:00,59.5,53.0,29.85,SSE,152,0.0,4.0,79,0.00,,,0.00,weatherlink.com 1.10,2013-03-22 16:10:00,
2013-03-22 09:25:00,59.9,53.0,29.85,SE,141,1.0,3.0,77,0.00,,,0.00,weatherlink.com 1.10,2013-03-22 16:25:00,
2013-03-22 09:40:00,60.8,53.0,29.86,ESE,122,0.0,3.0,76,0.00,,,0.00,weatherlink.com 1.10,2013-03-22 16:40:00,
2013-03-22 09:55:00,61.7,53.0,29.85,SSE,159,0.0,3.0,73,0.00,,,0.00,weatherlink.com 1.10,2013-03-22 16:55:00,
2013-03-22 10:10:00,62.6,53.0,29.85,SW,220,2.0,4.0,70,0.00,,,0.00,weatherlink.com 1.10,2013-03-22 17:10:00,
2013-03-22 10:25:00,63.5,52.0,29.84,SSW,204,2.0,6.0,67,0.00,,,0.00,weatherlink.com 1.10,2013-03-22 17:25:00,
2013-03-22 10:40:00,64.1,52.0,29.84,WSW,249,1.0,3.0,66,0.00,,,0.00,weatherlink.com 1.10,2013-03-22 17:40:00,
2013-03-22 10:55:00,65.2,53.0,29.84,SW,222,2.0,6.0,66,0.00,,,0.00,weatherlink.com 1.10,2013-03-22 17:55:00,
2013-03-22 11:10:00,65.2,53.0,29.84,SSW,207,0.0,7.0,65,0.00,,,0.00,weatherlink.com 1.10,2013-03-22 18:10:00,
2013-03-22 11:25:00,65.2,53.0,29.85,SW,226,4.0,6.0,65,0.00,,,0.00,weatherlink.com 1.10,2013-03-22 18:25:00,
2013-03-22 11:40:00,66.2,54.0,29.84,SW,228,0.0,5.0,65,0.00,,,0.00,weatherlink.com 1.10,2013-03-22 18:40:00,
2013-03-22 11:55:00,66.9,53.0,29.84,West,262,2.0,5.0,61,0.00,,,0.00,weatherlink.com 1.10,2013-03-22 18:55:00,
2013-03-22 12:10:00,66.8,53.0,29.84,SW,221,2.0,6.0,61,0.00,,,0.00,weatherlink.com 1.10,2013-03-22 19:10:00,
2013-03-22 12:25:00,67.6,53.0,29.84,WSW,241,2.0,6.0,60,0.00,,,0.00,weatherlink.com 1.10,2013-03-22 19:25:00,
2013-03-22 12:40:00,68.0,52.0,29.84,SW,231,4.0,8.0,58,0.00,,,0.00,weatherlink.com 1.10,2013-03-22 19:40:00,
2013-03-22 12:55:00,69.1,53.0,29.83,WSW,243,3.0,9.0,57,0.00,,,0.00,weatherlink.com 1.10,2013-03-22 19:55:00,
2013-03-22 13:10:00,68.0,52.0,29.83,SSE,150,5.0,10.0,58,0.00,,,0.00,weatherlink.com 1.10,2013-03-22 20:10:00,
2013-03-22 13:25:00,68.4,52.0,29.83,West,274,4.0,8.0,57,0.00,,,0.00,weatherlink.com 1.10,2013-03-22 20:25:00,
2013-03-22 13:40:00,68.6,52.0,29.82,WSW,255,1.0,6.0,56,0.00,,,0.00,weatherlink.com 1.10,2013-03-22 20:40:00,
2013-03-22 13:55:00,68.7,53.0,29.82,SSE,160,2.0,8.0,57,0.00,,,0.00,weatherlink.com 1.10,2013-03-22 20:55:00,
2013-03-22 14:10:00,68.2,52.0,29.82,West,277,6.0,10.0,56,0.00,,,0.00,weatherlink.com 1.10,2013-03-22 21:10:00,
2013-03-22 14:25:00,68.3,52.0,29.82,SW,236,3.0,9.0,57,0.00,,,0.00,weatherlink.com 1.10,2013-03-22 21:25:00,
2013-03-22 14:40:00,68.0,51.0,29.82,SW,228,7.0,10.0,55,0.00,,,0.00,weatherlink.com 1.10,2013-03-22 21:40:00,
2013-03-22 14:55:00,68.0,52.0,29.81,SW,227,1.0,10.0,56,0.00,,,0.00,weatherlink.com 1.10,2013-03-22 21:55:00,
2013-03-22 15:10:00,68.1,52.0,29.81,SW,224,3.0,10.0,56,0.00,,,0.00,weatherlink.com 1.10,2013-03-22 22:10:00,
2013-03-22 15:25:00,68.0,52.0,29.80,SSW,212,7.0,11.0,58,0.00,,,0.00,weatherlink.com 1.10,2013-03-22 22:25:00,
2013-03-22 15:40:00,68.1,54.0,29.80,SSW,195,2.0,11.0,60,0.00,,,0.00,weatherlink.com 1.10,2013-03-22 22:40:00,
2013-03-22 15:55:00,68.3,55.0,29.80,SSE,156,3.0,11.0,63,0.00,,,0.00,weatherlink.com 1.10,2013-03-22 22:55:00,
2013-03-22 16:10:00,69.3,54.0,29.80,SW,228,5.0,9.0,59,0.00,,,0.00,weatherlink.com 1.10,2013-03-22 23:10:00,
2013-03-22 16:25:00,70.4,55.0,29.80,West,269,3.0,7.0,58,0.00,,,0.00,weatherlink.com 1.10,2013-03-22 23:25:00,
2013-03-22 16:40:00,70.3,47.0,29.80,SW,222,4.0,11.0,44,0.00,,,0.00,weatherlink.com 1.10,2013-03-22 23:40:00,
2013-03-22 16:55:00,70.0,47.0,29.79,West,274,5.0,8.0,44,0.00,,,0.00,weatherlink.com 1.10,2013-03-22 23:55:00,
2013-03-22 17:10:00,70.2,47.0,29.79,WNW,295,1.0,7.0,43,0.00,,,0.00,weatherlink.com 1.10,2013-03-23 00:10:00,
2013-03-22 17:25:00,69.8,47.0,29.79,WNW,284,3.0,7.0,44,0.00,,,0.00,weatherlink.com 1.10,2013-03-23 00:25:00,
2013-03-22 17:40:00,69.0,53.0,29.79,SW,234,5.0,7.0,58,0.00,,,0.00,weatherlink.com 1.10,2013-03-23 00:40:00,
2013-03-22 17:55:00,67.1,53.0,29.79,SW,231,5.0,9.0,61,0.00,,,0.00,weatherlink.com 1.10,2013-03-23 00:55:00,
2013-03-22 18:10:00,67.1,53.0,29.80,SW,215,4.0,5.0,60,0.00,,,0.00,weatherlink.com 1.10,2013-03-23 01:10:00,
2013-03-22 18:25:00,66.0,54.0,29.80,SSE,151,5.0,6.0,66,0.00,,,0.00,weatherlink.com 1.10,2013-03-23 01:25:00,
2013-03-22 18:40:00,64.4,55.0,29.80,West,278,3.0,6.0,71,0.00,,,0.00,weatherlink.com 1.10,2013-03-23 01:40:00,
2013-03-22 18:55:00,62.8,55.0,29.81,SSW,201,2.0,4.0,75,0.00,,,0.00,weatherlink.com 1.10,2013-03-23 01:55:00,
2013-03-22 19:10:00,61.5,55.0,29.81,SW,234,0.0,6.0,79,0.00,,,0.00,weatherlink.com 1.10,2013-03-23 02:10:00,
2013-03-22 19:25:00,60.9,55.0,29.81,SW,231,1.0,4.0,80,0.00,,,0.00,weatherlink.com 1.10,2013-03-23 02:25:00,
2013-03-22 19:40:00,60.5,55.0,29.82,SW,231,0.0,4.0,81,0.00,,,0.00,weatherlink.com 1.10,2013-03-23 02:40:00,
2013-03-22 19:55:00,60.2,55.0,29.82,SW,218,0.0,3.0,82,0.00,,,0.00,weatherlink.com 1.10,2013-03-23 02:55:00,
2013-03-22 20:11:00,59.9,55.0,29.83,SSE,157,2.0,3.0,83,0.00,,,0.00,weatherlink.com 1.10,2013-03-23 03:11:00,
2013-03-22 20:26:00,59.7,55.0,29.83,SE,143,3.0,4.0,84,0.00,,,0.00,weatherlink.com 1.10,2013-03-23 03:26:00,
2013-03-22 20:41:00,59.4,55.0,29.84,SW,233,0.0,5.0,85,0.00,,,0.00,weatherlink.com 1.10,2013-03-23 03:41:00,
2013-03-22 20:56:00,59.5,54.0,29.85,WSW,242,3.0,7.0,82,0.00,,,0.00,weatherlink.com 1.10,2013-03-23 03:56:00,
2013-03-22 21:11:00,59.3,53.0,29.85,SE,141,2.0,4.0,80,0.00,,,0.00,weatherlink.com 1.10,2013-03-23 04:11:00,
2013-03-22 21:26:00,59.0,53.0,29.85,SE,146,1.0,4.0,79,0.00,,,0.00,weatherlink.com 1.10,2013-03-23 04:26:00,
2013-03-22 21:41:00,58.7,52.0,29.86,SSW,208,2.0,3.0,78,0.00,,,0.00,weatherlink.com 1.10,2013-03-23 04:41:00,
2013-03-22 21:56:00,58.6,53.0,29.86,SSE,162,0.0,2.0,81,0.00,,,0.00,weatherlink.com 1.10,2013-03-23 04:56:00,
2013-03-22 22:11:00,58.3,53.0,29.87,SSW,197,0.0,1.0,82,0.00,,,0.00,weatherlink.com 1.10,2013-03-23 05:11:00,
2013-03-22 22:26:00,57.8,52.0,29.88,SW,233,1.0,2.0,82,0.00,,,0.00,weatherlink.com 1.10,2013-03-23 05:26:00,
2013-03-22 22:41:00,57.9,52.0,29.87,ESE,115,0.0,2.0,82,0.00,,,0.00,weatherlink.com 1.10,2013-03-23 05:41:00,
2013-03-22 23:11:00,57.5,52.0,29.88,SE,141,0.0,2.0,82,0.00,,,0.00,weatherlink.com 1.10,2013-03-23 06:11:00,
2013-03-22 23:26:00,57.3,52.0,29.88,East,97,0.0,3.0,83,0.00,,,0.00,weatherlink.com 1.10,2013-03-23 06:26:00,
2013-03-22 23:41:00,57.5,53.0,29.88,ESE,115,2.0,4.0,85,0.00,,,0.00,weatherlink.com 1.10,2013-03-23 06:41:00,
2013-03-22 23:56:00,57.9,54.0,29.88,SE,131,2.0,4.0,86,0.00,,,0.00,weatherlink.com 1.10,2013-03-23 06:56:00,